Time;durP1;ratioP1;P1;durP2;ratioP2;P2;SDS_P1;SDS_P2;PMS_P1;PMS_P2;Temp;Humidity;BMP_temperature;BMP_pressure;BME280_temperature;BME280_humidity;BME280_pressure;Samples;Min_cycle;Max_cycle;Signal;HPM_P1;HPM_P2
2024/02/13 00:01:19;;;;;;;8.33;6.13;;;6.40;99.90;;;;;;5035847;28;20489;-59
2024/02/13 00:03:49;;;;;;;13.50;7.20;;;6.40;99.90;;;;;;5030373;28;21025;-59
2024/02/13 00:06:17;;;;;;;6.90;6.20;;;6.40;99.90;;;;;;5034978;28;20482;-59
2024/02/13 00:08:46;;;;;;;9.90;6.10;;;6.40;99.90;;;;;;5036026;28;20467;-58
2024/02/13 00:11:15;;;;;;;11.00;6.70;;;6.30;99.90;;;;;;5035969;28;20475;-59
2024/02/13 00:13:46;;;;;;;8.83;6.20;;;6.30;99.90;;;;;;5033380;28;20482;-58
2024/02/13 00:16:17;;;;;;;11.73;6.30;;;6.30;99.90;;;;;;5034769;28;20518;-58
2024/02/13 00:18:47;;;;;;;9.63;6.50;;;6.30;99.90;;;;;;5031580;28;20520;-58
2024/02/13 00:21:16;;;;;;;10.90;6.27;;;6.30;99.90;;;;;;5032152;28;20535;-58
2024/02/13 00:23:44;;;;;;;8.67;5.77;;;6.40;99.90;;;;;;5034232;28;20498;-59
2024/02/13 00:26:13;;;;;;;9.83;6.20;;;6.40;99.90;;;;;;5036226;28;20574;-59
2024/02/13 00:28:41;;;;;;;9.87;6.07;;;6.40;99.90;;;;;;5033715;28;22148;-59
2024/02/13 00:31:09;;;;;;;8.83;5.50;;;6.30;99.90;;;;;;5034641;28;20486;-59
2024/02/13 00:33:37;;;;;;;12.13;6.30;;;6.30;99.90;;;;;;5029995;28;20670;-58
2024/02/13 00:36:07;;;;;;;11.00;5.90;;;6.30;99.90;;;;;;5032856;28;20491;-59
2024/02/13 00:38:36;;;;;;;8.97;5.80;;;6.30;99.90;;;;;;5033610;28;20467;-59
2024/02/13 00:41:04;;;;;;;11.50;6.70;;;6.30;99.90;;;;;;5034898;28;20510;-58
2024/02/13 00:43:35;;;;;;;9.07;6.10;;;6.30;99.90;;;;;;5032058;28;20475;-58
2024/02/13 00:46:03;;;;;;;7.80;6.50;;;6.30;99.90;;;;;;5033147;28;20625;-58
2024/02/13 00:48:31;;;;;;;8.40;6.10;;;6.30;99.90;;;;;;5036205;28;21197;-59
2024/02/13 00:51:00;;;;;;;14.63;6.77;;;6.30;99.90;;;;;;5034433;28;20518;-59
2024/02/13 00:53:28;;;;;;;7.47;6.60;;;6.20;99.90;;;;;;5033865;28;20471;-58
2024/02/13 00:55:58;;;;;;;10.50;6.50;;;6.20;99.90;;;;;;5036364;28;21032;-58
2024/02/13 00:58:27;;;;;;;8.53;6.97;;;6.20;99.90;;;;;;5036091;28;20486;-59
2024/02/13 01:00:55;;;;;;;9.97;6.10;;;6.20;99.90;;;;;;5033273;28;20921;-58
2024/02/13 01:03:23;;;;;;;11.73;6.47;;;6.20;99.90;;;;;;5034863;28;20509;-59
2024/02/13 01:05:51;;;;;;;6.60;6.00;;;6.20;99.90;;;;;;5032209;28;21004;-58
2024/02/13 01:08:23;;;;;;;8.43;6.13;;;6.10;99.90;;;;;;5034782;28;20470;-59
2024/02/13 01:10:51;;;;;;;8.63;6.30;;;6.10;99.90;;;;;;5033507;28;20486;-59
2024/02/13 01:13:21;;;;;;;11.10;5.97;;;6.10;99.90;;;;;;5036679;28;20463;-58
2024/02/13 01:15:49;;;;;;;8.37;5.87;;;6.10;99.90;;;;;;5036479;28;21088;-59
2024/02/13 01:18:17;;;;;;;10.10;6.07;;;6.10;99.90;;;;;;5036659;28;21195;-58
2024/02/13 01:20:45;;;;;;;8.00;5.73;;;6.00;99.90;;;;;;5032465;28;20952;-59
2024/02/13 01:23:14;;;;;;;9.03;6.07;;;6.00;99.90;;;;;;5034195;28;20467;-59
2024/02/13 01:25:42;;;;;;;7.63;5.40;;;6.00;99.90;;;;;;5035306;28;20481;-59
2024/02/13 01:28:10;;;;;;;6.33;5.73;;;6.00;99.90;;;;;;5036647;28;20514;-59
2024/02/13 01:30:39;;;;;;;8.83;6.17;;;6.00;99.90;;;;;;5035994;28;20474;-59
2024/02/13 01:33:07;;;;;;;7.20;5.63;;;6.00;99.90;;;;;;5036412;28;20975;-57
2024/02/13 01:35:37;;;;;;;6.80;5.30;;;5.90;99.90;;;;;;5033477;28;20601;-58
2024/02/13 01:38:06;;;;;;;9.00;6.23;;;5.90;99.90;;;;;;5038221;28;21011;-59
2024/02/13 01:40:35;;;;;;;8.27;5.50;;;5.80;99.90;;;;;;5033789;28;20921;-59
2024/02/13 01:43:03;;;;;;;5.77;4.80;;;5.70;99.90;;;;;;5034365;28;20470;-58
2024/02/13 01:45:31;;;;;;;5.60;4.80;;;5.70;99.90;;;;;;5035267;28;20594;-59
2024/02/13 01:48:04;;;;;;;6.20;4.20;;;5.60;99.90;;;;;;5034183;28;20457;-58
2024/02/13 01:50:32;;;;;;;5.80;4.93;;;5.60;99.90;;;;;;5037336;28;20478;-59
2024/02/13 01:53:01;;;;;;;9.17;4.87;;;5.60;99.90;;;;;;5040653;28;20524;-59
2024/02/13 01:55:29;;;;;;;5.37;4.87;;;5.60;99.90;;;;;;5039907;28;20562;-58
2024/02/13 01:58:01;;;;;;;7.80;5.10;;;5.60;99.90;;;;;;5038766;28;20931;-58
2024/02/13 02:00:31;;;;;;;5.60;4.60;;;5.60;99.90;;;;;;5039389;28;20527;-58
2024/02/13 02:03:03;;;;;;;9.93;5.30;;;5.50;99.90;;;;;;5037592;28;20554;-58
2024/02/13 02:05:32;;;;;;;8.73;4.53;;;5.50;99.90;;;;;;5038856;28;20521;-58
2024/02/13 02:08:01;;;;;;;9.20;5.80;;;5.40;99.90;;;;;;5040855;28;20470;-59
2024/02/13 02:10:29;;;;;;;7.07;4.70;;;5.40;99.90;;;;;;5035938;28;20474;-59
2024/02/13 02:12:57;;;;;;;5.80;5.20;;;5.30;99.90;;;;;;5040920;28;20976;-59
2024/02/13 02:15:25;;;;;;;7.30;5.50;;;5.40;99.90;;;;;;5040822;28;20466;-59
2024/02/13 02:17:53;;;;;;;6.67;4.80;;;5.40;99.90;;;;;;5040281;28;20826;-59
2024/02/13 02:20:23;;;;;;;7.47;4.90;;;5.30;99.90;;;;;;5039716;28;20466;-59
2024/02/13 02:22:51;;;;;;;7.30;4.93;;;5.40;99.90;;;;;;5038748;28;20549;-59
2024/02/13 02:25:22;;;;;;;7.70;5.40;;;5.30;99.90;;;;;;5038667;28;21052;-59
2024/02/13 02:27:51;;;;;;;5.97;4.50;;;5.30;99.90;;;;;;5039689;28;20474;-58
2024/02/13 02:30:19;;;;;;;7.40;4.97;;;5.30;99.90;;;;;;5036579;28;20483;-59
2024/02/13 02:32:48;;;;;;;6.40;5.20;;;5.30;99.90;;;;;;5038434;28;20482;-59
2024/02/13 02:35:17;;;;;;;10.80;5.20;;;5.30;99.90;;;;;;5039709;28;20553;-58
2024/02/13 02:37:48;;;;;;;5.93;4.60;;;5.40;99.90;;;;;;5037845;28;20893;-59
2024/02/13 02:40:18;;;;;;;6.90;5.47;;;5.40;99.90;;;;;;5039623;28;20509;-58
2024/02/13 02:42:48;;;;;;;5.83;5.00;;;5.40;99.90;;;;;;5035956;28;20486;-59
2024/02/13 02:45:17;;;;;;;7.37;5.50;;;5.40;99.90;;;;;;5039416;28;20467;-59
2024/02/13 02:47:46;;;;;;;8.03;4.90;;;5.40;99.90;;;;;;5038138;28;20539;-59
2024/02/13 02:50:14;;;;;;;6.80;4.37;;;5.40;99.90;;;;;;5039032;28;20983;-59
2024/02/13 02:52:43;;;;;;;7.03;4.60;;;5.40;99.90;;;;;;5037753;28;20498;-59
2024/02/13 02:55:11;;;;;;;6.87;4.73;;;5.40;99.90;;;;;;5039339;28;20500;-59
2024/02/13 02:57:39;;;;;;;8.20;5.20;;;5.40;99.90;;;;;;5039268;28;20913;-59
2024/02/13 03:00:12;;;;;;;5.60;4.60;;;5.50;99.90;;;;;;5038381;28;20956;-59
2024/02/13 03:02:41;;;;;;;7.77;4.73;;;5.50;99.90;;;;;;5038435;28;20474;-58
2024/02/13 03:05:10;;;;;;;5.93;4.63;;;5.40;99.90;;;;;;5038265;28;21048;-59
2024/02/13 03:07:38;;;;;;;7.57;5.07;;;5.40;99.90;;;;;;5040689;28;21022;-59
2024/02/13 03:10:08;;;;;;;5.40;4.40;;;5.40;99.90;;;;;;5035979;28;20473;-59
2024/02/13 03:12:37;;;;;;;7.80;5.30;;;5.40;99.90;;;;;;5037427;28;20489;-59
2024/02/13 03:15:05;;;;;;;5.50;5.00;;;5.40;99.90;;;;;;5037300;28;21063;-59
2024/02/13 03:17:37;;;;;;;6.70;5.20;;;5.40;99.90;;;;;;5038032;28;20545;-59
2024/02/13 03:20:09;;;;;;;6.90;5.27;;;5.40;99.90;;;;;;5039391;28;20543;-59
2024/02/13 03:22:38;;;;;;;7.13;4.60;;;5.40;99.90;;;;;;5038110;28;20998;-59
2024/02/13 03:25:07;;;;;;;5.33;3.87;;;5.50;99.90;;;;;;5038727;28;20474;-59
2024/02/13 03:27:36;;;;;;;4.90;4.23;;;5.50;99.90;;;;;;5031598;28;20522;-59
2024/02/13 03:30:04;;;;;;;9.90;4.63;;;5.40;99.90;;;;;;5037268;28;20956;-59
2024/02/13 03:32:32;;;;;;;5.47;4.37;;;5.40;99.90;;;;;;5035178;28;21012;-59
2024/02/13 03:35:02;;;;;;;4.40;4.00;;;5.40;99.90;;;;;;5038345;28;20957;-59
2024/02/13 03:37:30;;;;;;;5.77;4.30;;;5.40;99.90;;;;;;5037784;28;20552;-59
2024/02/13 03:39:58;;;;;;;7.60;4.60;;;5.40;99.90;;;;;;5035431;28;20496;-59
2024/02/13 03:42:26;;;;;;;6.73;4.70;;;5.40;99.90;;;;;;5036340;28;20474;-59
2024/02/13 03:44:54;;;;;;;8.17;4.63;;;5.40;99.90;;;;;;5037271;28;20554;-59
2024/02/13 03:47:22;;;;;;;7.30;4.17;;;5.50;99.90;;;;;;5036702;28;21226;-58
2024/02/13 03:49:50;;;;;;;5.80;4.23;;;5.50;99.90;;;;;;5034826;28;21066;-59
2024/02/13 03:52:20;;;;;;;5.43;4.10;;;5.50;99.90;;;;;;5038947;28;20996;-59
2024/02/13 03:54:48;;;;;;;5.20;4.40;;;5.50;99.90;;;;;;5038680;28;20499;-59
2024/02/13 03:57:15;;;;;;;5.90;4.20;;;5.50;99.90;;;;;;5036069;28;20503;-59
2024/02/13 03:59:44;;;;;;;7.70;4.70;;;5.40;99.90;;;;;;5034828;28;20482;-58
2024/02/13 04:02:12;;;;;;;9.57;4.17;;;5.40;99.90;;;;;;5032679;28;20474;-59
2024/02/13 04:04:40;;;;;;;6.37;4.23;;;5.40;99.90;;;;;;5037417;28;20559;-59
2024/02/13 04:07:08;;;;;;;5.90;4.20;;;5.40;99.90;;;;;;5037807;28;20494;-59
2024/02/13 04:09:37;;;;;;;7.57;4.27;;;5.40;99.90;;;;;;5037795;28;21880;-59
2024/02/13 04:12:06;;;;;;;5.17;4.00;;;5.40;99.90;;;;;;5035521;28;20703;-59
2024/02/13 04:14:34;;;;;;;6.37;4.60;;;5.40;99.90;;;;;;5037174;28;20529;-59
2024/02/13 04:17:02;;;;;;;9.53;4.50;;;5.30;99.90;;;;;;5036901;28;20495;-59
2024/02/13 04:19:31;;;;;;;5.40;4.13;;;5.30;99.90;;;;;;5036315;28;20490;-59
2024/02/13 04:21:59;;;;;;;10.47;4.80;;;5.30;99.90;;;;;;5035847;28;20479;-59
2024/02/13 04:24:27;;;;;;;4.57;4.17;;;5.30;99.90;;;;;;5034896;28;20474;-59
2024/02/13 04:26:56;;;;;;;7.73;4.77;;;5.30;99.90;;;;;;5037330;28;20497;-59
2024/02/13 04:29:24;;;;;;;6.33;4.27;;;5.30;99.90;;;;;;5034793;28;20463;-58
2024/02/13 04:31:52;;;;;;;6.53;4.97;;;5.30;99.90;;;;;;5033962;28;21274;-58
2024/02/13 04:34:20;;;;;;;7.47;4.50;;;5.30;99.90;;;;;;5037531;28;21050;-59
2024/02/13 04:36:49;;;;;;;7.03;4.50;;;5.30;99.90;;;;;;5033327;28;20502;-59
2024/02/13 04:39:17;;;;;;;6.23;4.67;;;5.30;99.90;;;;;;5033695;28;21045;-58
2024/02/13 04:41:46;;;;;;;6.23;5.00;;;5.30;99.90;;;;;;5035603;28;20552;-59
2024/02/13 04:44:16;;;;;;;8.77;5.10;;;5.30;99.90;;;;;;5035726;28;20997;-59
2024/02/13 04:46:44;;;;;;;5.90;4.90;;;5.30;99.90;;;;;;5037117;28;20494;-59
2024/02/13 04:49:12;;;;;;;9.50;5.00;;;5.30;99.90;;;;;;5037122;28;20982;-59
2024/02/13 04:51:40;;;;;;;6.77;5.23;;;5.20;99.90;;;;;;5034410;28;20494;-59
2024/02/13 04:54:08;;;;;;;8.53;5.20;;;5.20;99.90;;;;;;5034714;28;20547;-59
2024/02/13 04:56:36;;;;;;;8.20;5.53;;;5.20;99.90;;;;;;5036934;28;20498;-58
2024/02/13 04:59:07;;;;;;;6.10;5.50;;;5.20;99.90;;;;;;5033482;28;20497;-58
2024/02/13 05:01:39;;;;;;;9.90;5.37;;;5.20;99.90;;;;;;5030260;28;20491;-58
2024/02/13 05:07:20;;;;;;;8.30;5.50;;;5.10;99.90;;;;;;5013990;28;20501;-58
2024/02/13 05:09:48;;;;;;;7.83;6.53;;;5.10;99.90;;;;;;5038050;28;20471;-59
2024/02/13 05:12:16;;;;;;;9.10;6.60;;;5.10;99.90;;;;;;5035351;28;20478;-59
2024/02/13 05:14:44;;;;;;;7.70;5.67;;;5.10;99.90;;;;;;5036786;28;20474;-60
2024/02/13 05:17:13;;;;;;;10.47;6.73;;;5.10;99.90;;;;;;5036830;28;21057;-59
2024/02/13 05:19:41;;;;;;;9.40;6.13;;;5.00;99.90;;;;;;5036236;28;20491;-61
2024/02/13 05:22:09;;;;;;;8.70;6.30;;;5.00;99.90;;;;;;5033851;28;20884;-58
2024/02/13 05:24:39;;;;;;;11.17;6.50;;;5.00;99.90;;;;;;5039249;28;20471;-58
2024/02/13 05:27:07;;;;;;;10.10;6.83;;;5.00;99.90;;;;;;5039448;28;20540;-61
2024/02/13 05:29:36;;;;;;;8.67;6.30;;;5.00;99.90;;;;;;5038509;28;20951;-58
2024/02/13 05:32:04;;;;;;;12.07;7.10;;;5.00;99.90;;;;;;5034733;28;20776;-60
2024/02/13 05:34:34;;;;;;;11.13;7.37;;;5.00;99.90;;;;;;5029924;28;20482;-61
2024/02/13 05:37:02;;;;;;;7.53;6.73;;;5.00;99.90;;;;;;5035615;28;20585;-61
2024/02/13 05:39:30;;;;;;;7.50;6.20;;;5.10;99.90;;;;;;5037626;28;20573;-59
2024/02/13 05:41:58;;;;;;;11.60;7.30;;;5.10;99.90;;;;;;5037508;28;20905;-60
2024/02/13 05:44:26;;;;;;;7.90;7.07;;;5.10;99.90;;;;;;5035737;28;20873;-59
2024/02/13 05:46:56;;;;;;;10.13;7.27;;;5.00;99.90;;;;;;5037412;28;21080;-58
2024/02/13 05:49:24;;;;;;;10.33;7.70;;;5.00;99.90;;;;;;5037153;28;20552;-59
2024/02/13 05:51:53;;;;;;;10.83;7.20;;;5.00;99.90;;;;;;5036964;28;21034;-59
2024/02/13 05:54:22;;;;;;;9.27;7.53;;;5.00;99.90;;;;;;5036278;28;20876;-59
2024/02/13 05:56:50;;;;;;;10.07;8.20;;;5.00;99.90;;;;;;5036475;28;20556;-58
2024/02/13 05:59:18;;;;;;;10.80;7.33;;;5.00;99.90;;;;;;5035236;28;20475;-60
2024/02/13 06:01:47;;;;;;;10.00;7.90;;;5.00;99.90;;;;;;5030602;28;20689;-59
2024/02/13 06:04:16;;;;;;;9.97;7.60;;;5.00;99.90;;;;;;5039026;28;20547;-58
2024/02/13 06:06:46;;;;;;;13.90;7.73;;;4.90;99.90;;;;;;5035493;28;20522;-58
2024/02/13 06:09:20;;;;;;;9.57;8.03;;;4.90;99.90;;;;;;5033715;28;20889;-59
2024/02/13 06:11:49;;;;;;;11.77;8.67;;;4.90;99.90;;;;;;5037072;28;20914;-60
2024/02/13 06:14:18;;;;;;;13.30;9.37;;;4.90;99.90;;;;;;5039441;28;20524;-61
2024/02/13 06:16:47;;;;;;;10.90;8.60;;;4.90;99.90;;;;;;5033216;28;20494;-59
2024/02/13 06:19:15;;;;;;;11.70;8.23;;;4.80;99.90;;;;;;5037596;28;20466;-59
2024/02/13 06:21:43;;;;;;;11.77;8.30;;;4.90;99.90;;;;;;5024406;28;21020;-59
2024/02/13 06:24:11;;;;;;;16.63;9.23;;;4.90;99.90;;;;;;5024588;28;20555;-58
2024/02/13 06:26:40;;;;;;;17.10;9.07;;;4.90;99.90;;;;;;5034207;28;20598;-58
2024/02/13 06:29:08;;;;;;;13.83;8.60;;;4.90;99.90;;;;;;5036733;28;20474;-58
2024/02/13 06:31:36;;;;;;;11.90;9.47;;;4.90;99.90;;;;;;5035616;28;20474;-58
2024/02/13 06:34:04;;;;;;;15.10;9.30;;;4.80;99.90;;;;;;5034171;28;20486;-59
2024/02/13 06:36:33;;;;;;;13.97;9.40;;;4.80;99.90;;;;;;5035605;28;20478;-59
2024/02/13 06:39:01;;;;;;;13.00;9.57;;;4.80;99.90;;;;;;5034855;28;20469;-58
2024/02/13 06:41:30;;;;;;;15.40;10.23;;;4.80;99.90;;;;;;5037285;28;20482;-58
2024/02/13 06:44:03;;;;;;;12.83;9.60;;;4.80;99.90;;;;;;5040641;28;20568;-58
2024/02/13 06:46:31;;;;;;;13.23;9.43;;;4.80;99.90;;;;;;5034197;28;20576;-58
2024/02/13 06:48:59;;;;;;;13.80;10.03;;;4.80;99.90;;;;;;5037973;28;20470;-58
2024/02/13 06:51:28;;;;;;;13.13;8.80;;;4.90;99.90;;;;;;5039541;28;20482;-58
2024/02/13 06:54:00;;;;;;;13.87;9.87;;;4.90;99.90;;;;;;5039216;28;20541;-59
2024/02/13 06:56:28;;;;;;;14.10;10.40;;;4.90;99.90;;;;;;5038211;28;20561;-58
2024/02/13 06:58:56;;;;;;;11.43;9.30;;;4.90;99.90;;;;;;5036184;28;20493;-58
2024/02/13 07:01:26;;;;;;;15.50;11.10;;;4.80;99.90;;;;;;5033638;28;21920;-61
2024/02/13 07:03:54;;;;;;;18.70;10.43;;;4.80;99.90;;;;;;5037732;28;20586;-58
2024/02/13 07:06:22;;;;;;;14.30;10.10;;;4.80;99.90;;;;;;5037642;28;20487;-61
2024/02/13 07:09:10;;;;;;;12.10;9.77;;;4.80;99.90;;;;;;5039216;28;20573;-61
2024/02/13 07:11:38;;;;;;;16.33;10.90;;;4.80;99.90;;;;;;5038040;28;20474;-58
2024/02/13 07:14:07;;;;;;;12.27;9.80;;;4.80;99.90;;;;;;5041263;28;20545;-60
2024/02/13 07:16:38;;;;;;;14.00;10.77;;;4.80;99.90;;;;;;5038707;28;20844;-58
2024/02/13 07:19:09;;;;;;;16.03;10.60;;;4.80;99.90;;;;;;5039777;28;20471;-61
2024/02/13 07:21:38;;;;;;;16.67;12.40;;;4.80;99.90;;;;;;5036760;28;20982;-58
2024/02/13 07:24:07;;;;;;;16.40;11.67;;;4.70;99.90;;;;;;5039045;28;21461;-61
2024/02/13 07:26:35;;;;;;;17.03;11.53;;;4.70;99.90;;;;;;5038749;28;20582;-60
2024/02/13 07:29:04;;;;;;;13.60;11.30;;;4.70;99.90;;;;;;5038582;28;20472;-59
2024/02/13 07:31:34;;;;;;;16.53;11.77;;;4.70;99.90;;;;;;5032457;28;20573;-61
2024/02/13 07:34:04;;;;;;;17.70;12.93;;;4.80;99.90;;;;;;5035723;28;20562;-59
2024/02/13 07:36:32;;;;;;;19.73;12.93;;;4.80;99.90;;;;;;5034751;28;20847;-58
2024/02/13 07:39:00;;;;;;;21.27;13.50;;;4.80;99.90;;;;;;5033054;28;21050;-60
2024/02/13 07:41:29;;;;;;;16.27;13.30;;;4.80;99.90;;;;;;5036388;28;20573;-57
2024/02/13 07:43:58;;;;;;;16.60;12.80;;;4.80;99.90;;;;;;5039094;28;20499;-58
2024/02/13 07:46:26;;;;;;;19.50;13.47;;;4.90;99.90;;;;;;5033758;28;20581;-61
2024/02/13 07:48:55;;;;;;;16.20;12.87;;;4.90;99.90;;;;;;5036764;28;20857;-58
2024/02/13 07:51:24;;;;;;;15.70;12.30;;;5.00;99.90;;;;;;5036906;28;20516;-58
2024/02/13 07:53:52;;;;;;;18.50;13.50;;;5.00;99.90;;;;;;5033743;28;20466;-58
2024/02/13 07:56:28;;;;;;;21.20;14.13;;;5.10;99.90;;;;;;5037318;28;20585;-61
2024/02/13 07:58:57;;;;;;;17.20;13.80;;;5.10;99.90;;;;;;5037747;28;20546;-58
2024/02/13 08:01:26;;;;;;;19.27;14.43;;;5.20;99.90;;;;;;5035463;28;20956;-58
2024/02/13 08:03:55;;;;;;;20.70;15.73;;;5.20;99.90;;;;;;5036283;28;20516;-61
2024/02/13 08:06:24;;;;;;;19.93;14.50;;;5.20;99.90;;;;;;5037738;28;20774;-58
2024/02/13 08:08:53;;;;;;;18.70;14.30;;;5.20;99.90;;;;;;5036683;28;20474;-61
2024/02/13 08:11:21;;;;;;;21.90;14.73;;;5.20;99.90;;;;;;5036316;28;20478;-61
2024/02/13 08:13:53;;;;;;;17.70;13.73;;;5.20;99.90;;;;;;5039534;28;20510;-58
2024/02/13 08:16:22;;;;;;;17.67;13.57;;;5.20;99.90;;;;;;5035724;28;21181;-58
2024/02/13 08:18:51;;;;;;;19.70;13.90;;;5.30;99.90;;;;;;5036545;28;20462;-58
2024/02/13 08:21:19;;;;;;;16.87;13.90;;;5.30;99.90;;;;;;5037033;28;20857;-58
2024/02/13 08:23:48;;;;;;;19.00;14.40;;;5.30;99.90;;;;;;5035781;28;20466;-60
2024/02/13 08:26:17;;;;;;;17.80;14.57;;;5.30;99.90;;;;;;5038783;28;20491;-61
2024/02/13 08:28:45;;;;;;;23.43;15.00;;;5.30;99.90;;;;;;5036501;28;20607;-58
2024/02/13 08:31:13;;;;;;;17.73;14.60;;;5.30;99.90;;;;;;5037846;28;20484;-58
2024/02/13 08:33:44;;;;;;;16.67;13.70;;;5.30;99.90;;;;;;5037967;28;20479;-58
2024/02/13 08:36:12;;;;;;;16.87;13.50;;;5.40;99.90;;;;;;5037439;28;20501;-61
2024/02/13 08:38:41;;;;;;;18.20;13.97;;;5.40;99.90;;;;;;5034020;28;20520;-58
2024/02/13 08:41:14;;;;;;;17.67;13.57;;;5.50;99.90;;;;;;5036405;28;20865;-60
2024/02/13 08:43:42;;;;;;;16.87;14.50;;;5.50;99.90;;;;;;5035591;28;20474;-61
2024/02/13 08:46:13;;;;;;;17.83;13.30;;;5.60;99.90;;;;;;5035813;28;20486;-58
2024/02/13 08:48:41;;;;;;;17.90;13.57;;;5.60;99.90;;;;;;5038493;28;20517;-58
2024/02/13 08:51:09;;;;;;;19.00;13.93;;;5.60;99.90;;;;;;5033555;28;20478;-59
2024/02/13 08:53:37;;;;;;;17.90;13.10;;;5.60;99.90;;;;;;5037671;28;20474;-61
2024/02/13 08:56:06;;;;;;;19.87;13.80;;;5.60;99.90;;;;;;5034899;28;20883;-58
2024/02/13 08:58:35;;;;;;;15.83;12.60;;;5.70;99.90;;;;;;5035482;28;20474;-57
2024/02/13 09:01:04;;;;;;;15.80;13.10;;;5.70;99.90;;;;;;5034891;28;20492;-58
2024/02/13 09:03:33;;;;;;;17.27;13.20;;;5.70;99.90;;;;;;5035589;28;20471;-58
2024/02/13 09:06:04;;;;;;;15.67;12.03;;;5.70;99.90;;;;;;5036801;28;20578;-58
2024/02/13 09:08:33;;;;;;;14.00;12.50;;;5.70;99.90;;;;;;5032363;28;20462;-58
2024/02/13 09:11:01;;;;;;;18.10;12.50;;;5.80;99.90;;;;;;5035046;28;20493;-58
2024/02/13 09:13:30;;;;;;;18.43;13.40;;;5.80;99.90;;;;;;5036451;28;20485;-58
2024/02/13 09:15:59;;;;;;;15.27;12.67;;;5.80;99.90;;;;;;5036863;28;20578;-58
2024/02/13 09:18:27;;;;;;;13.43;11.50;;;5.90;99.90;;;;;;5037435;28;20466;-58
2024/02/13 09:20:58;;;;;;;15.33;12.77;;;6.00;99.90;;;;;;5035619;28;20484;-58
2024/02/13 09:23:27;;;;;;;13.47;11.77;;;6.00;99.90;;;;;;5036955;28;20478;-58
2024/02/13 09:25:56;;;;;;;16.77;12.47;;;6.00;99.90;;;;;;5036769;28;21192;-59
2024/02/13 09:28:24;;;;;;;14.60;12.33;;;6.00;99.90;;;;;;5026731;28;20921;-59
2024/02/13 09:30:52;;;;;;;15.30;12.57;;;6.10;99.90;;;;;;5036994;28;20485;-58
2024/02/13 09:33:22;;;;;;;14.20;12.70;;;6.10;99.90;;;;;;5037860;28;20490;-58
2024/02/13 09:35:51;;;;;;;15.00;12.20;;;6.10;99.90;;;;;;5035480;28;20953;-58
2024/02/13 09:38:20;;;;;;;16.07;12.53;;;6.20;99.90;;;;;;5032581;28;20482;-58
2024/02/13 09:40:48;;;;;;;19.03;13.93;;;6.20;99.90;;;;;;5033762;28;20531;-57
2024/02/13 09:43:17;;;;;;;16.10;12.30;;;6.20;99.90;;;;;;5038518;28;20529;-58
2024/02/13 09:45:46;;;;;;;15.80;12.30;;;6.20;99.90;;;;;;5035073;28;20553;-59
2024/02/13 09:48:23;;;;;;;17.50;11.90;;;6.30;99.90;;;;;;5036936;28;21011;-58
2024/02/13 09:50:54;;;;;;;14.50;11.40;;;6.30;99.90;;;;;;5036133;28;20470;-58
2024/02/13 09:53:26;;;;;;;17.80;13.10;;;6.30;99.90;;;;;;5038730;28;20858;-59
2024/02/13 09:55:57;;;;;;;14.50;12.97;;;6.30;99.90;;;;;;5034335;28;20503;-57
2024/02/13 09:58:26;;;;;;;15.97;12.50;;;6.40;99.90;;;;;;5036852;28;20473;-58
2024/02/13 10:00:54;;;;;;;15.43;12.07;;;6.40;99.90;;;;;;5036566;28;20506;-58
2024/02/13 10:03:29;;;;;;;22.07;12.90;;;6.40;99.90;;;;;;5035979;28;20482;-58
2024/02/13 10:05:58;;;;;;;17.90;13.10;;;6.40;99.90;;;;;;5034557;28;20590;-58
2024/02/13 10:08:30;;;;;;;15.93;12.23;;;6.40;99.90;;;;;;5036022;28;20501;-59
2024/02/13 10:11:01;;;;;;;18.83;13.47;;;6.40;99.90;;;;;;5040920;28;20854;-59
2024/02/13 10:13:35;;;;;;;18.90;13.40;;;6.50;99.90;;;;;;5038063;28;20475;-58
2024/02/13 10:16:03;;;;;;;16.03;12.33;;;6.50;99.90;;;;;;5039925;28;20485;-59
2024/02/13 10:18:35;;;;;;;15.53;11.50;;;6.50;99.90;;;;;;5038043;28;20470;-59
2024/02/13 10:21:05;;;;;;;17.67;13.23;;;6.60;99.90;;;;;;5037508;28;20537;-58
2024/02/13 10:23:34;;;;;;;16.03;11.87;;;6.60;99.90;;;;;;5041233;28;20501;-58
2024/02/13 10:26:07;;;;;;;17.57;12.47;;;6.60;99.90;;;;;;5042857;28;20491;-58
2024/02/13 10:28:35;;;;;;;17.97;12.17;;;6.70;99.90;;;;;;5036143;28;20511;-57
2024/02/13 10:31:04;;;;;;;17.30;12.17;;;6.80;99.90;;;;;;5039776;28;20649;-58
2024/02/13 10:33:42;;;;;;;13.13;11.60;;;6.80;99.90;;;;;;5038980;28;20513;-58
2024/02/13 10:36:11;;;;;;;13.90;11.40;;;6.90;99.90;;;;;;5039714;28;20490;-58
2024/02/13 10:38:39;;;;;;;15.17;12.60;;;6.90;99.90;;;;;;5039129;28;20894;-58
2024/02/13 10:41:10;;;;;;;14.60;12.00;;;7.00;99.90;;;;;;5039666;28;20535;-58
2024/02/13 10:43:39;;;;;;;15.90;12.10;;;7.00;99.90;;;;;;5038647;28;20498;-59
2024/02/13 10:46:12;;;;;;;14.63;11.87;;;7.00;99.90;;;;;;5039728;28;20494;-59
2024/02/13 10:48:46;;;;;;;19.13;13.50;;;7.10;99.90;;;;;;5038421;28;21011;-58
2024/02/13 10:51:17;;;;;;;16.30;12.93;;;7.10;99.90;;;;;;5036273;28;20478;-59
2024/02/13 10:53:48;;;;;;;15.60;12.87;;;7.10;99.90;;;;;;5038688;28;20542;-58
2024/02/13 10:56:17;;;;;;;14.27;11.83;;;7.10;99.90;;;;;;5037196;28;21064;-58
2024/02/13 10:58:47;;;;;;;16.00;12.97;;;7.20;99.90;;;;;;5037163;28;20470;-57
2024/02/13 11:01:17;;;;;;;15.70;12.10;;;7.10;99.90;;;;;;5039691;28;20473;-58
2024/02/13 11:03:55;;;;;;;17.13;12.50;;;7.20;99.90;;;;;;5041089;28;20490;-59
2024/02/13 11:06:23;;;;;;;15.43;12.50;;;7.20;99.90;;;;;;5037496;28;20570;-58
2024/02/13 11:08:52;;;;;;;16.30;13.10;;;7.20;99.90;;;;;;5034890;28;20557;-58
2024/02/13 11:11:25;;;;;;;17.13;12.67;;;7.20;99.90;;;;;;5037131;28;20507;-61
2024/02/13 11:13:53;;;;;;;16.60;12.27;;;7.30;99.90;;;;;;5038868;28;20463;-58
2024/02/13 11:16:22;;;;;;;16.77;13.47;;;7.40;99.90;;;;;;5034962;28;20586;-58
2024/02/13 11:18:53;;;;;;;16.93;12.07;;;7.40;99.90;;;;;;5039452;28;20478;-58
2024/02/13 11:21:22;;;;;;;14.67;12.13;;;7.50;99.90;;;;;;5034867;28;20497;-59
2024/02/13 11:23:54;;;;;;;16.37;12.30;;;7.70;99.90;;;;;;5035961;28;20491;-59
2024/02/13 11:26:23;;;;;;;16.43;12.83;;;7.90;99.90;;;;;;5039192;28;20574;-59
2024/02/13 11:28:53;;;;;;;14.80;12.30;;;8.00;99.90;;;;;;5038043;28;20951;-59
2024/02/13 11:31:26;;;;;;;14.60;12.23;;;8.10;99.90;;;;;;5038622;28;20527;-59
2024/02/13 11:34:09;;;;;;;21.77;12.70;;;8.20;99.90;;;;;;5039805;28;20474;-59
2024/02/13 11:36:38;;;;;;;15.10;11.63;;;8.20;99.90;;;;;;5038847;28;21169;-59
2024/02/13 11:39:07;;;;;;;15.07;12.33;;;8.20;99.90;;;;;;5037130;28;20478;-59
2024/02/13 11:41:35;;;;;;;14.33;11.73;;;8.10;99.90;;;;;;5039672;28;20482;-59
2024/02/13 11:44:08;;;;;;;15.57;11.87;;;8.00;99.90;;;;;;5039343;28;20499;-59
2024/02/13 11:46:39;;;;;;;17.53;14.57;;;7.90;99.90;;;;;;5037784;28;20498;-59
2024/02/13 11:49:10;;;;;;;21.43;13.03;;;7.90;99.90;;;;;;5037068;28;20525;-59
2024/02/13 11:51:40;;;;;;;15.50;13.13;;;7.90;99.90;;;;;;5035213;28;20475;-59
2024/02/13 11:54:09;;;;;;;17.53;12.63;;;7.90;99.90;;;;;;5036887;28;20471;-59
2024/02/13 11:56:39;;;;;;;14.60;12.27;;;7.90;99.90;;;;;;5031881;28;20548;-59
2024/02/13 11:59:08;;;;;;;16.27;13.73;;;7.90;99.90;;;;;;5039127;28;20473;-59
2024/02/13 12:01:37;;;;;;;15.13;13.23;;;7.90;99.90;;;;;;5037512;28;21053;-59
2024/02/13 12:04:07;;;;;;;15.90;12.40;;;7.90;99.90;;;;;;5037504;28;20523;-59
2024/02/13 12:06:38;;;;;;;16.50;12.00;;;7.80;99.90;;;;;;5036060;28;20487;-59
2024/02/13 12:09:07;;;;;;;15.53;12.93;;;7.80;99.90;;;;;;5037584;28;20474;-59
2024/02/13 12:11:36;;;;;;;15.30;13.17;;;7.70;99.90;;;;;;5036884;28;20478;-59
2024/02/13 12:14:05;;;;;;;14.10;12.60;;;7.80;99.90;;;;;;5036423;28;20986;-59
2024/02/13 12:16:35;;;;;;;17.40;13.13;;;7.90;99.90;;;;;;5037981;28;20944;-59
2024/02/13 12:19:03;;;;;;;16.43;12.70;;;8.00;99.90;;;;;;5038502;28;20495;-59
2024/02/13 12:21:32;;;;;;;16.70;13.10;;;7.90;99.90;;;;;;5038217;28;20873;-59
2024/02/13 12:24:02;;;;;;;16.70;14.10;;;7.90;99.90;;;;;;5029102;28;20502;-59
2024/02/13 12:26:31;;;;;;;14.03;12.63;;;7.80;99.90;;;;;;5037182;28;20494;-59
2024/02/13 12:28:59;;;;;;;16.30;13.40;;;7.70;99.90;;;;;;5037157;28;20466;-59
2024/02/13 12:31:29;;;;;;;15.83;13.70;;;7.60;99.90;;;;;;5035953;28;20556;-58
2024/02/13 12:34:04;;;;;;;18.20;15.13;;;7.60;99.90;;;;;;5035781;28;20462;-58
2024/02/13 12:36:33;;;;;;;17.40;14.83;;;7.60;99.90;;;;;;5035444;28;23820;-59
2024/02/13 12:39:08;;;;;;;19.17;15.30;;;7.60;99.90;;;;;;5036239;28;20472;-59
2024/02/13 12:41:37;;;;;;;16.43;13.80;;;7.60;99.90;;;;;;5032678;28;21058;-59
2024/02/13 12:44:05;;;;;;;17.00;13.40;;;7.60;99.90;;;;;;5035058;28;20577;-59
2024/02/13 12:46:36;;;;;;;20.90;15.17;;;7.60;99.90;;;;;;5032261;28;20494;-59
2024/02/13 12:49:06;;;;;;;18.67;14.43;;;7.60;99.90;;;;;;5033614;28;20544;-59
2024/02/13 12:51:35;;;;;;;22.27;15.63;;;7.60;99.90;;;;;;5028741;28;20968;-59
2024/02/13 12:54:06;;;;;;;16.60;14.90;;;7.60;99.90;;;;;;5031178;28;21213;-59
2024/02/13 12:56:37;;;;;;;17.27;14.40;;;7.60;99.90;;;;;;5033803;28;20490;-59
2024/02/13 12:59:08;;;;;;;21.60;15.37;;;7.50;99.90;;;;;;5036263;28;20475;-59